createdAt,value
2023-11-18T00:01:07.676Z,8.31
2023-11-18T00:03:34.447Z,8.32
2023-11-18T00:06:01.188Z,8.36
2023-11-18T00:08:28.094Z,8.43
2023-11-18T00:10:55.337Z,8.48
2023-11-18T00:13:22.757Z,8.53
2023-11-18T00:15:49.632Z,8.57
2023-11-18T00:18:16.999Z,8.61
2023-11-18T00:20:44.457Z,8.63
2023-11-18T00:23:11.240Z,8.65
2023-11-18T00:25:41.176Z,8.66
2023-11-18T00:28:10.573Z,8.64
2023-11-18T00:30:37.324Z,8.60
2023-11-18T00:33:04.405Z,8.56
2023-11-18T00:35:33.405Z,8.53
2023-11-18T00:38:00.430Z,8.51
2023-11-18T00:40:31.112Z,8.47
2023-11-18T00:42:58.384Z,8.47
2023-11-18T00:45:25.540Z,8.48
2023-11-18T00:47:52.338Z,8.47
2023-11-18T00:50:19.338Z,8.47
2023-11-18T00:52:51.138Z,8.48
2023-11-18T00:55:21.405Z,8.47
2023-11-18T00:57:48.339Z,8.46
2023-11-18T01:00:23.146Z,8.46
2023-11-18T01:02:51.379Z,8.46
2023-11-18T01:05:18.521Z,8.44
2023-11-18T01:07:45.453Z,8.43
2023-11-18T01:10:15.121Z,8.40
2023-11-18T01:12:43.100Z,8.37
2023-11-18T01:15:11.770Z,8.33
2023-11-18T01:17:39.716Z,8.32
2023-11-18T01:20:11.951Z,8.30
2023-11-18T01:22:40.599Z,8.33
2023-11-18T01:25:09.871Z,8.38
2023-11-18T01:27:36.758Z,8.43
2023-11-18T01:30:05.956Z,8.45
2023-11-18T01:32:33.195Z,8.47
2023-11-18T01:35:00.268Z,8.48
2023-11-18T01:40:16.765Z,8.45
2023-11-18T01:42:45.096Z,8.43
2023-11-18T01:45:13.226Z,8.42
2023-11-18T01:47:41.159Z,8.44
2023-11-18T01:50:10.578Z,8.47
2023-11-18T01:52:37.580Z,8.53
2023-11-18T01:55:08.093Z,8.59
2023-11-18T01:57:35.548Z,8.63
2023-11-18T02:00:07.504Z,8.66
2023-11-18T02:02:41.404Z,8.66
2023-11-18T02:05:08.880Z,8.64
2023-11-18T02:07:38.685Z,8.62
2023-11-18T02:10:10.557Z,8.61
2023-11-18T02:13:13.473Z,8.58
2023-11-18T02:15:42.101Z,8.57
2023-11-18T02:18:11.339Z,8.58
2023-11-18T02:20:39.685Z,8.59
2023-11-18T02:23:08.769Z,8.59
2023-11-18T02:25:40.486Z,8.58
2023-11-18T02:28:07.309Z,8.57
2023-11-18T02:30:34.347Z,8.57
2023-11-18T02:33:06.791Z,8.57
2023-11-18T02:35:38.569Z,8.57
2023-11-18T02:38:06.540Z,8.57
2023-11-18T02:40:36.670Z,8.59
2023-11-18T02:43:06.374Z,8.60
2023-11-18T02:45:37.220Z,8.60
2023-11-18T02:48:07.823Z,8.60
2023-11-18T02:50:39.354Z,8.58
2023-11-18T02:53:06.595Z,8.55
2023-11-18T02:55:33.757Z,8.52
2023-11-18T02:58:06.559Z,8.50
2023-11-18T03:00:35.055Z,8.48
2023-11-18T03:03:01.846Z,8.49
2023-11-18T03:05:28.544Z,8.51
2023-11-18T03:07:58.321Z,8.52
2023-11-18T03:10:25.170Z,8.49
2023-11-18T03:12:56.437Z,8.49
2023-11-18T03:15:24.294Z,8.49
2023-11-18T03:17:53.188Z,8.48
2023-11-18T03:20:22.034Z,8.46
2023-11-18T03:22:49.102Z,8.44
2023-11-18T03:25:16.845Z,8.43
2023-11-18T03:27:45.623Z,8.42
2023-11-18T03:30:12.764Z,8.44
2023-11-18T03:32:43.739Z,8.44
2023-11-18T03:35:11.072Z,8.44
2023-11-18T03:37:43.107Z,8.44
2023-11-18T03:40:15.472Z,8.46
2023-11-18T03:42:43.816Z,8.47
2023-11-18T03:45:11.334Z,8.47
2023-11-18T03:47:38.591Z,8.49
2023-11-18T03:50:06.834Z,8.50
2023-11-18T03:52:34.067Z,8.50
2023-11-18T03:55:00.968Z,8.49
2023-11-18T03:57:27.871Z,8.49
2023-11-18T03:59:54.985Z,8.49
2023-11-18T04:02:21.811Z,8.48
2023-11-18T04:04:49.845Z,8.46
2023-11-18T04:07:16.657Z,8.46
2023-11-18T04:09:45.155Z,8.47
2023-11-18T04:12:12.038Z,8.48
2023-11-18T04:14:39.242Z,8.50
2023-11-18T04:17:07.485Z,8.50
2023-11-18T04:19:36.292Z,8.48
2023-11-18T04:22:03.169Z,8.44
2023-11-18T04:24:30.030Z,8.42
2023-11-18T04:26:56.950Z,8.37
2023-11-18T04:29:24.461Z,8.32
2023-11-18T04:31:51.843Z,8.27
2023-11-18T04:34:18.709Z,8.23
2023-11-18T04:36:45.769Z,8.19
2023-11-18T04:39:13.413Z,8.17
2023-11-18T04:41:40.909Z,8.16
2023-11-18T04:44:08.468Z,8.14
2023-11-18T04:46:37.215Z,8.12
2023-11-18T04:49:04.249Z,8.10
2023-11-18T04:51:31.212Z,8.05
2023-11-18T04:53:58.260Z,8.00
2023-11-18T04:56:25.207Z,7.95
2023-11-18T04:58:51.980Z,7.91
2023-11-18T05:01:19.648Z,7.87
2023-11-18T05:03:46.529Z,7.81
2023-11-18T05:06:13.467Z,7.76
2023-11-18T05:08:40.223Z,7.73
2023-11-18T05:11:07.237Z,7.70
2023-11-18T05:13:35.215Z,7.67
2023-11-18T05:16:02.405Z,7.66
2023-11-18T05:18:34.685Z,7.65
2023-11-18T05:21:01.852Z,7.65
2023-11-18T05:23:30.668Z,7.63
2023-11-18T05:25:57.737Z,7.59
2023-11-18T05:28:25.284Z,7.53
2023-11-18T05:30:53.419Z,7.48
2023-11-18T05:33:20.767Z,7.44
2023-11-18T05:35:50.572Z,7.42
2023-11-18T05:38:23.103Z,7.40
2023-11-18T05:40:57.705Z,7.39
2023-11-18T05:43:37.994Z,7.37
2023-11-18T05:46:25.925Z,7.35
2023-11-18T05:48:54.144Z,7.30
2023-11-18T05:51:23.240Z,7.26
2023-11-18T05:53:50.619Z,7.22
2023-11-18T05:56:18.035Z,7.23
2023-11-18T05:58:45.523Z,7.24
2023-11-18T06:01:13.909Z,7.27
2023-11-18T06:03:41.134Z,7.29
2023-11-18T06:06:11.883Z,7.30
2023-11-18T06:08:43.035Z,7.32
2023-11-18T06:11:14.481Z,7.34
2023-11-18T06:13:43.459Z,7.37
2023-11-18T06:16:18.176Z,7.40
2023-11-18T06:18:45.944Z,7.43
2023-11-18T06:21:17.430Z,7.45
2023-11-18T06:23:46.110Z,7.44
2023-11-18T06:26:13.184Z,7.42
2023-11-18T06:28:41.397Z,7.38
2023-11-18T06:31:10.232Z,7.33
2023-11-18T06:33:44.380Z,7.29
2023-11-18T06:36:14.470Z,7.24
2023-11-18T06:38:42.318Z,7.20
2023-11-18T06:41:13.584Z,7.19
2023-11-18T06:43:57.977Z,7.17
2023-11-18T06:46:41.505Z,7.16
2023-11-18T06:49:12.373Z,7.13
2023-11-18T06:51:40.077Z,7.11
2023-11-18T06:54:11.757Z,7.12
2023-11-18T06:56:46.955Z,7.13
2023-11-18T06:59:16.453Z,7.18
2023-11-18T07:01:45.886Z,7.24
2023-11-18T07:04:15.801Z,7.30
2023-11-18T07:06:44.538Z,7.36
2023-11-18T07:09:19.312Z,7.40
2023-11-18T07:11:48.662Z,7.42
2023-11-18T07:14:16.269Z,7.46
2023-11-18T07:16:44.269Z,7.49
2023-11-18T07:19:18.996Z,7.53
2023-11-18T07:21:45.753Z,7.60
2023-11-18T07:24:12.390Z,7.66
2023-11-18T07:26:39.135Z,7.71
2023-11-18T07:29:09.080Z,7.74
2023-11-18T07:31:37.463Z,7.78
2023-11-18T07:34:07.118Z,7.86
2023-11-18T07:36:34.689Z,7.94
2023-11-18T07:39:04.039Z,8.01
2023-11-18T07:41:33.736Z,8.05
2023-11-18T07:44:01.716Z,8.10
2023-11-18T07:46:32.154Z,8.13
2023-11-18T07:48:59.522Z,8.16
2023-11-18T07:51:26.353Z,8.21
2023-11-18T07:53:54.344Z,8.25
2023-11-18T07:56:23.752Z,8.31
2023-11-18T07:58:53.198Z,8.33
2023-11-18T08:01:23.045Z,8.33
2023-11-18T08:03:52.648Z,8.31
2023-11-18T08:06:19.987Z,8.29
2023-11-18T08:08:49.082Z,8.27
2023-11-18T08:11:16.095Z,8.26
2023-11-18T08:13:43.304Z,8.28
2023-11-18T08:16:10.440Z,8.31
2023-11-18T08:18:38.152Z,8.35
2023-11-18T08:21:08.276Z,8.40
2023-11-18T08:23:35.710Z,8.47
2023-11-18T08:26:03.163Z,8.55
2023-11-18T08:28:30.421Z,8.64
2023-11-18T08:30:57.165Z,8.75
2023-11-18T08:33:27.215Z,8.85
2023-11-18T08:35:53.951Z,8.95
2023-11-18T08:38:21.058Z,9.06
2023-11-18T08:40:50.138Z,9.19
2023-11-18T08:43:18.057Z,9.33
2023-11-18T08:45:46.078Z,9.47
2023-11-18T08:48:13.210Z,9.57
2023-11-18T08:50:44.392Z,9.66
2023-11-18T08:53:13.297Z,9.73
2023-11-18T08:55:41.939Z,9.77
2023-11-18T08:58:22.939Z,9.78
2023-11-18T09:00:55.913Z,9.78
2023-11-18T09:03:27.315Z,9.77
2023-11-18T09:05:59.805Z,9.80
2023-11-18T09:08:28.404Z,9.86
2023-11-18T09:10:55.922Z,9.97
2023-11-18T09:13:36.530Z,10.15
2023-11-18T09:16:10.289Z,10.34
2023-11-18T09:18:43.128Z,10.48
2023-11-18T09:21:20.724Z,10.60
2023-11-18T09:23:50.666Z,10.70
2023-11-18T09:26:18.050Z,10.80
2023-11-18T09:28:46.721Z,10.88
2023-11-18T09:31:13.869Z,10.97
2023-11-18T09:33:48.162Z,11.07
2023-11-18T09:36:15.421Z,11.14
2023-11-18T09:38:42.840Z,11.22
2023-11-18T09:41:15.109Z,11.26
2023-11-18T09:43:46.765Z,11.30
2023-11-18T09:46:17.148Z,11.32
2023-11-18T09:49:01.340Z,11.34
2023-11-18T09:51:31.314Z,11.39
2023-11-18T09:54:02.643Z,11.42
2023-11-18T09:56:45.146Z,11.47
2023-11-18T09:59:29.770Z,11.52
2023-11-18T10:01:59.194Z,11.58
2023-11-18T10:04:29.330Z,11.62
2023-11-18T10:06:57.948Z,11.66
2023-11-18T10:09:41.279Z,11.71
2023-11-18T10:12:13.887Z,11.77
2023-11-18T10:14:45.141Z,11.83
2023-11-18T10:17:15.990Z,11.86
2023-11-18T10:19:54.000Z,11.91
2023-11-18T10:22:27.564Z,11.95
2023-11-18T10:24:58.906Z,11.99
2023-11-18T10:27:27.837Z,12.03
2023-11-18T10:29:58.865Z,12.06
2023-11-18T10:32:29.251Z,12.10
2023-11-18T10:34:59.891Z,12.15
2023-11-18T10:37:27.564Z,12.18
2023-11-18T10:39:54.385Z,12.21
2023-11-18T10:42:21.410Z,12.26
2023-11-18T10:45:04.685Z,12.30
2023-11-18T10:47:40.527Z,12.33
2023-11-18T10:50:11.350Z,12.35
2023-11-18T10:52:42.565Z,12.36
2023-11-18T10:55:13.796Z,12.36
2023-11-18T10:57:43.732Z,12.38
2023-11-18T11:00:15.030Z,12.40
2023-11-18T11:02:43.390Z,12.42
2023-11-18T11:05:20.939Z,12.46
2023-11-18T11:07:50.071Z,12.51
2023-11-18T11:10:17.764Z,12.54
2023-11-18T11:12:54.781Z,12.58
2023-11-18T11:15:29.585Z,12.63
2023-11-18T11:18:10.070Z,12.65
2023-11-18T11:20:43.867Z,12.69
2023-11-18T11:23:28.058Z,12.72
2023-11-18T11:26:10.596Z,12.74
2023-11-18T11:29:09.251Z,12.78
2023-11-18T11:31:43.910Z,12.83
2023-11-18T11:34:20.410Z,12.88
2023-11-18T11:36:53.974Z,12.92
2023-11-18T11:39:27.322Z,12.95
2023-11-18T11:41:58.546Z,12.99
2023-11-18T11:44:31.232Z,13.01
2023-11-18T11:47:01.910Z,13.04
2023-11-18T11:49:38.275Z,13.07
2023-11-18T11:52:17.595Z,13.10
2023-11-18T11:54:51.631Z,13.12
2023-11-18T11:57:18.393Z,13.17
2023-11-18T11:59:46.073Z,13.23
2023-11-18T12:02:17.539Z,13.30
2023-11-18T12:04:53.797Z,13.36
2023-11-18T12:07:28.524Z,13.41
2023-11-18T12:09:59.556Z,13.45
2023-11-18T12:12:28.222Z,13.48
2023-11-18T12:14:57.950Z,13.52
2023-11-18T12:17:29.917Z,13.56
2023-11-18T12:20:08.107Z,13.61
2023-11-18T12:23:28.486Z,13.64
2023-11-18T12:25:58.247Z,13.67
2023-11-18T12:28:35.578Z,13.70
2023-11-18T12:31:07.925Z,13.72
2023-11-18T12:34:11.232Z,13.73
2023-11-18T12:36:56.582Z,13.75
2023-11-18T12:40:14.269Z,13.79
2023-11-18T12:42:45.935Z,13.85
2023-11-18T12:45:22.088Z,13.89
2023-11-18T12:47:53.387Z,13.93
2023-11-18T12:50:26.188Z,13.96
2023-11-18T12:52:53.835Z,13.97
2023-11-18T12:55:24.398Z,13.98
2023-11-18T12:57:55.311Z,13.98
2023-11-18T13:00:28.820Z,13.99
2023-11-18T13:02:56.387Z,14.01
2023-11-18T13:05:23.814Z,14.03
2023-11-18T13:07:51.095Z,14.03
2023-11-18T13:10:18.479Z,14.03
2023-11-18T13:12:46.975Z,14.05
2023-11-18T13:15:13.886Z,14.06
2023-11-18T13:17:42.152Z,14.10
2023-11-18T13:20:19.041Z,14.12
2023-11-18T13:22:48.466Z,14.14
2023-11-18T13:25:16.168Z,14.13
2023-11-18T13:27:43.063Z,14.15
2023-11-18T13:30:14.401Z,14.15
2023-11-18T13:32:43.518Z,14.17
2023-11-18T13:35:14.717Z,14.18
2023-11-18T13:37:45.368Z,14.20
2023-11-18T13:40:15.475Z,14.22
2023-11-18T13:42:48.090Z,14.22
2023-11-18T13:45:30.643Z,14.24
2023-11-18T13:48:03.435Z,14.25
2023-11-18T13:50:30.412Z,14.24
2023-11-18T13:52:58.758Z,14.23
2023-11-18T13:55:29.222Z,14.22
2023-11-18T13:57:58.930Z,14.22
2023-11-18T14:00:31.354Z,14.23
2023-11-18T14:03:00.981Z,14.24
2023-11-18T14:05:28.164Z,14.23
2023-11-18T14:08:08.734Z,14.24
2023-11-18T14:10:39.556Z,14.22
2023-11-18T14:13:07.278Z,14.19
2023-11-18T14:15:36.626Z,14.17
2023-11-18T14:18:04.694Z,14.16
2023-11-18T14:20:32.717Z,14.13
2023-11-18T14:23:00.169Z,14.11
2023-11-18T14:25:28.618Z,14.11
2023-11-18T14:27:55.431Z,14.10
2023-11-18T14:30:25.625Z,14.09
2023-11-18T14:32:53.323Z,14.08
2023-11-18T14:35:21.880Z,14.08
2023-11-18T14:37:48.970Z,14.04
2023-11-18T14:40:17.318Z,14.02
2023-11-18T14:42:46.737Z,14.00
2023-11-18T14:45:15.910Z,13.97
2023-11-18T14:47:46.040Z,13.91
2023-11-18T14:50:19.488Z,13.85
2023-11-18T14:52:52.980Z,13.78
2023-11-18T14:55:20.081Z,13.71
2023-11-18T14:57:47.790Z,13.66
2023-11-18T15:00:22.919Z,13.62
2023-11-18T15:02:51.766Z,13.57
2023-11-18T15:05:22.298Z,13.51
2023-11-18T15:07:54.300Z,13.44
2023-11-18T15:10:24.982Z,13.36
2023-11-18T15:12:54.438Z,13.28
2023-11-18T15:15:32.577Z,13.21
2023-11-18T15:18:00.925Z,13.16
2023-11-18T15:20:28.009Z,13.09
2023-11-18T15:22:55.331Z,13.03
2023-11-18T15:25:22.321Z,12.97
2023-11-18T15:27:50.627Z,12.90
2023-11-18T15:30:18.127Z,12.81
2023-11-18T15:32:46.700Z,12.70
2023-11-18T15:35:17.582Z,12.61
2023-11-18T15:37:48.207Z,12.48
2023-11-18T15:40:20.797Z,12.36
2023-11-18T15:42:51.632Z,12.24
2023-11-18T15:45:20.598Z,12.16
2023-11-18T15:47:49.646Z,12.07
2023-11-18T15:50:18.063Z,11.97
2023-11-18T15:52:50.580Z,11.88
2023-11-18T15:55:19.130Z,11.79
2023-11-18T15:57:56.442Z,11.70
2023-11-18T16:00:27.873Z,11.57
2023-11-18T16:03:01.874Z,11.46
2023-11-18T16:05:35.460Z,11.38
2023-11-18T16:08:05.346Z,11.30
2023-11-18T16:10:33.255Z,11.24
2023-11-18T16:13:02.072Z,11.18
2023-11-18T16:15:31.476Z,11.12
2023-11-18T16:18:00.241Z,11.05
2023-11-18T16:20:33.746Z,10.99
2023-11-18T16:23:04.326Z,10.95
2023-11-18T16:25:31.968Z,10.91
2023-11-18T16:28:01.274Z,10.86
2023-11-18T16:30:31.306Z,10.81
2023-11-18T16:33:00.317Z,10.75
2023-11-18T16:35:28.295Z,10.71
2023-11-18T16:37:56.248Z,10.64
2023-11-18T16:40:25.286Z,10.58
2023-11-18T16:42:56.918Z,10.50
2023-11-18T16:45:26.027Z,10.43
2023-11-18T16:47:55.361Z,10.38
2023-11-18T16:50:24.777Z,10.32
2023-11-18T16:52:52.258Z,10.29
2023-11-18T16:55:19.837Z,10.25
2023-11-18T16:57:48.892Z,10.21
2023-11-18T17:00:17.862Z,10.17
2023-11-18T17:02:52.285Z,10.15
2023-11-18T17:05:19.378Z,10.11
2023-11-18T17:07:46.762Z,10.10
2023-11-18T17:10:13.622Z,10.07
2023-11-18T17:12:44.235Z,10.05
2023-11-18T17:15:15.021Z,10.01
2023-11-18T17:17:46.950Z,9.99
2023-11-18T17:20:16.026Z,9.96
2023-11-18T17:22:44.246Z,9.93
2023-11-18T17:25:24.682Z,9.91
2023-11-18T17:27:54.516Z,9.88
2023-11-18T17:30:22.126Z,9.84
2023-11-18T17:32:53.176Z,9.81
2023-11-18T17:35:21.595Z,9.75
2023-11-18T17:37:48.789Z,9.72
2023-11-18T17:40:16.944Z,9.69
2023-11-18T17:42:46.066Z,9.67
2023-11-18T17:45:14.147Z,9.65
2023-11-18T17:47:44.499Z,9.65
2023-11-18T17:50:15.456Z,9.64
2023-11-18T17:52:47.582Z,9.64
2023-11-18T17:55:14.611Z,9.61
2023-11-18T17:57:42.494Z,9.61
2023-11-18T18:00:13.856Z,9.59
2023-11-18T18:02:42.464Z,9.56
2023-11-18T18:05:10.004Z,9.55
2023-11-18T18:07:37.339Z,9.55
2023-11-18T18:10:04.791Z,9.53
2023-11-18T18:12:32.042Z,9.49
2023-11-18T18:14:58.820Z,9.44
2023-11-18T18:17:25.670Z,9.41
2023-11-18T18:19:52.617Z,9.40
2023-11-18T18:22:19.623Z,9.41
2023-11-18T18:24:46.357Z,9.41
2023-11-18T18:27:21.381Z,9.39
2023-11-18T18:29:48.482Z,9.40
2023-11-18T18:32:17.176Z,9.41
2023-11-18T18:34:43.951Z,9.42
2023-11-18T18:37:10.711Z,9.40
2023-11-18T18:39:37.450Z,9.41
2023-11-18T18:42:04.767Z,9.42
2023-11-18T18:44:31.837Z,9.42
2023-11-18T18:46:59.033Z,9.43
2023-11-18T18:49:25.895Z,9.43
2023-11-18T18:51:52.810Z,9.42
2023-11-18T18:54:19.703Z,9.40
2023-11-18T18:56:46.638Z,9.39
2023-11-18T18:59:13.693Z,9.40
2023-11-18T19:01:41.468Z,9.41
2023-11-18T19:04:09.455Z,9.42
2023-11-18T19:06:37.286Z,9.43
2023-11-18T19:09:05.423Z,9.44
2023-11-18T19:11:32.609Z,9.45
2023-11-18T19:13:59.992Z,9.47
2023-11-18T19:16:27.420Z,9.48
2023-11-18T19:18:56.948Z,9.44
2023-11-18T19:21:26.847Z,9.41
2023-11-18T19:23:53.750Z,9.36
2023-11-18T19:26:22.348Z,9.31
2023-11-18T19:28:49.197Z,9.24
2023-11-18T19:31:16.889Z,9.22
2023-11-18T19:33:44.126Z,9.21
2023-11-18T19:36:11.772Z,9.19
2023-11-18T19:38:39.277Z,9.16
2023-11-18T19:41:06.994Z,9.14
2023-11-18T19:43:36.950Z,9.14
2023-11-18T19:46:04.312Z,9.14
2023-11-18T19:48:32.975Z,9.13
2023-11-18T19:51:00.039Z,9.10
2023-11-18T19:53:27.492Z,9.06
2023-11-18T19:55:54.548Z,9.02
2023-11-18T19:58:23.471Z,8.98
2023-11-18T20:00:51.250Z,8.95
2023-11-18T20:03:18.239Z,8.91
2023-11-18T20:05:45.216Z,8.87
2023-11-18T20:08:12.002Z,8.82
2023-11-18T20:10:38.742Z,8.79
2023-11-18T20:13:06.266Z,8.74
2023-11-18T20:15:34.156Z,8.70
2023-11-18T20:18:01.241Z,8.66
2023-11-18T20:20:28.577Z,8.62
2023-11-18T20:22:55.993Z,8.59
2023-11-18T20:25:24.060Z,8.56
2023-11-18T20:27:51.348Z,8.55
2023-11-18T20:30:18.739Z,8.53
2023-11-18T20:32:45.776Z,8.51
2023-11-18T20:35:13.826Z,8.47
2023-11-18T20:37:40.989Z,8.43
2023-11-18T20:40:12.356Z,8.40
2023-11-18T20:42:42.077Z,8.39
2023-11-18T20:45:15.440Z,8.38
2023-11-18T20:47:42.726Z,8.37
2023-11-18T20:50:12.894Z,8.38
2023-11-18T20:52:41.361Z,8.40
2023-11-18T20:55:11.486Z,8.44
2023-11-18T20:57:39.344Z,8.46
2023-11-18T21:00:08.704Z,8.47
2023-11-18T21:02:36.307Z,8.48
2023-11-18T21:05:06.816Z,8.51
2023-11-18T21:07:34.176Z,8.53
2023-11-18T21:10:01.175Z,8.50
2023-11-18T21:12:27.957Z,8.48
2023-11-18T21:14:54.760Z,8.47
2023-11-18T21:17:26.490Z,8.44
2023-11-18T21:19:54.250Z,8.44
2023-11-18T21:22:21.038Z,8.43
2023-11-18T21:24:47.918Z,8.41
2023-11-18T21:27:15.899Z,8.42
2023-11-18T21:29:42.977Z,8.40
2023-11-18T21:32:12.245Z,8.40
2023-11-18T21:34:41.926Z,8.40
2023-11-18T21:37:12.299Z,8.39
2023-11-18T21:39:42.559Z,8.38
2023-11-18T21:42:09.883Z,8.38
2023-11-18T21:44:38.267Z,8.36
2023-11-18T21:47:05.768Z,8.30
2023-11-18T21:49:33.181Z,8.30
2023-11-18T21:52:00.727Z,8.34
2023-11-18T21:54:31.914Z,8.35
2023-11-18T21:56:59.289Z,8.37
2023-11-18T21:59:27.563Z,8.37
2023-11-18T22:01:56.199Z,8.38
2023-11-18T22:04:23.293Z,8.36
2023-11-18T22:06:52.562Z,8.32
2023-11-18T22:09:21.260Z,8.32
2023-11-18T22:11:49.315Z,8.36
2023-11-18T22:14:17.231Z,8.40
2023-11-18T22:16:44.097Z,8.45
2023-11-18T22:19:11.015Z,8.48
2023-11-18T22:21:38.313Z,8.52
2023-11-18T22:24:05.414Z,8.55
2023-11-18T22:26:32.257Z,8.55
2023-11-18T22:28:59.038Z,8.59
2023-11-18T22:31:27.252Z,8.59
2023-11-18T22:33:54.100Z,8.61
2023-11-18T22:36:20.769Z,8.61
2023-11-18T22:38:47.489Z,8.60
2023-11-18T22:41:14.412Z,8.55
2023-11-18T22:43:41.334Z,8.51
2023-11-18T22:46:12.008Z,8.49
2023-11-18T22:48:39.024Z,8.50
2023-11-18T22:51:07.076Z,8.52
2023-11-18T22:53:33.939Z,8.55
2023-11-18T22:56:00.680Z,8.56
2023-11-18T22:58:27.437Z,8.58
2023-11-18T23:00:56.296Z,8.59
2023-11-18T23:03:23.535Z,8.62
2023-11-18T23:05:53.951Z,8.68
2023-11-18T23:08:23.537Z,8.72
2023-11-18T23:10:52.442Z,8.75
2023-11-18T23:13:20.934Z,8.77
2023-11-18T23:15:48.238Z,8.77
2023-11-18T23:18:15.727Z,8.74
2023-11-18T23:20:42.697Z,8.70
2023-11-18T23:23:09.576Z,8.67
2023-11-18T23:25:36.642Z,8.62
2023-11-18T23:28:06.201Z,8.59
2023-11-18T23:30:33.213Z,8.55
2023-11-18T23:33:00.421Z,8.49
2023-11-18T23:35:29.171Z,8.46
2023-11-18T23:37:57.538Z,8.44
2023-11-18T23:40:24.675Z,8.44
2023-11-18T23:42:52.000Z,8.44
2023-11-18T23:45:19.983Z,8.43
2023-11-18T23:47:51.934Z,8.40
2023-11-18T23:50:21.180Z,8.36
2023-11-18T23:52:48.218Z,8.34
2023-11-18T23:55:15.684Z,8.32
2023-11-18T23:57:43.255Z,8.30
